Time;durP1;ratioP1;P1;durP2;ratioP2;P2;SDS_P1;SDS_P2;PMS_P1;PMS_P2;Temp;Humidity;BMP_temperature;BMP_pressure;BME280_temperature;BME280_humidity;BME280_pressure;Samples;Min_cycle;Max_cycle;Signal;HPM_P1;HPM_P2
2022/07/05 00:01:55;;;;;;;4.90;2.08;;;19.30;58.10;;;;;;5019692;28;20030;-64
2022/07/05 00:04:21;;;;;;;6.40;2.17;;;19.30;58.30;;;;;;5027440;28;20029;-64
2022/07/05 00:09:30;;;;;;;5.10;1.88;;;19.30;58.40;;;;;;5015159;28;20058;-64
2022/07/05 00:11:56;;;;;;;6.32;2.35;;;19.20;58.50;;;;;;5014232;28;20037;-64
2022/07/05 00:14:22;;;;;;;5.20;2.20;;;19.20;58.50;;;;;;5026930;28;20042;-64
2022/07/05 00:16:49;;;;;;;5.65;2.15;;;19.20;58.70;;;;;;5022962;28;20159;-64
2022/07/05 00:19:15;;;;;;;6.25;2.42;;;19.20;58.80;;;;;;5011914;28;20037;-64
2022/07/05 00:21:40;;;;;;;5.90;2.40;;;19.20;58.90;;;;;;5019201;28;20134;-64
2022/07/05 00:24:06;;;;;;;4.97;2.13;;;19.10;59.00;;;;;;5015062;28;20152;-64
2022/07/05 00:26:32;;;;;;;5.72;2.50;;;19.20;59.20;;;;;;5024575;28;20057;-64
2022/07/05 00:28:58;;;;;;;4.90;2.20;;;19.10;59.10;;;;;;5019347;28;20450;-64
2022/07/05 00:31:23;;;;;;;5.57;2.30;;;19.10;59.70;;;;;;5015343;28;20398;-64
2022/07/05 00:33:49;;;;;;;6.45;2.22;;;19.10;59.20;;;;;;5017840;28;20022;-64
2022/07/05 00:36:15;;;;;;;8.48;2.45;;;19.10;59.30;;;;;;5015019;28;20363;-64
2022/07/05 00:38:40;;;;;;;5.43;2.38;;;19.00;59.40;;;;;;5017221;28;20022;-64
2022/07/05 00:41:06;;;;;;;6.93;2.45;;;19.00;59.50;;;;;;5024275;28;20033;-64
2022/07/05 00:43:31;;;;;;;5.25;2.67;;;19.00;59.60;;;;;;5031769;28;20036;-64
2022/07/05 00:45:57;;;;;;;5.22;2.40;;;19.00;59.60;;;;;;5025641;28;20057;-64
2022/07/05 00:48:23;;;;;;;6.18;2.80;;;19.00;59.70;;;;;;5021040;28;20034;-64
2022/07/05 00:50:50;;;;;;;5.90;2.70;;;18.90;59.80;;;;;;5024656;28;20533;-63
2022/07/05 00:53:16;;;;;;;5.25;2.50;;;18.90;60.00;;;;;;5021264;28;20053;-63
2022/07/05 00:55:44;;;;;;;6.93;2.85;;;18.90;60.20;;;;;;5024759;28;20057;-64
2022/07/05 00:58:10;;;;;;;5.38;2.40;;;18.90;60.40;;;;;;5016534;28;20440;-63
2022/07/05 01:00:36;;;;;;;6.15;2.97;;;18.90;60.60;;;;;;5019902;28;20060;-64
2022/07/05 01:03:02;;;;;;;6.50;2.78;;;18.90;60.70;;;;;;5023805;28;20466;-64
2022/07/05 01:05:29;;;;;;;7.55;3.10;;;18.80;60.80;;;;;;5030524;28;20037;-64
2022/07/05 01:07:56;;;;;;;5.43;2.63;;;18.80;61.00;;;;;;5017096;28;20443;-64
2022/07/05 01:10:22;;;;;;;5.75;2.78;;;18.80;61.20;;;;;;5022176;28;20054;-63
2022/07/05 01:12:48;;;;;;;5.88;2.78;;;18.80;61.20;;;;;;5020934;28;20037;-63
2022/07/05 01:15:14;;;;;;;5.40;2.58;;;18.80;61.30;;;;;;5022368;28;20041;-64
2022/07/05 01:17:39;;;;;;;6.75;2.72;;;18.70;61.40;;;;;;5016687;28;20105;-64
2022/07/05 01:20:07;;;;;;;6.65;2.88;;;18.70;61.50;;;;;;5018447;28;20041;-63
2022/07/05 01:22:51;;;;;;;5.95;2.80;;;18.70;61.60;;;;;;5024053;28;20411;-64
2022/07/05 01:25:18;;;;;;;5.57;2.63;;;18.70;61.60;;;;;;5028321;28;20466;-64
2022/07/05 01:27:45;;;;;;;6.57;3.20;;;18.60;61.60;;;;;;5019348;28;20033;-64
2022/07/05 01:30:12;;;;;;;6.18;3.05;;;18.60;61.70;;;;;;5014047;28;20466;-64
2022/07/05 01:32:37;;;;;;;6.78;2.75;;;18.60;61.80;;;;;;5020973;28;20462;-63
2022/07/05 01:35:04;;;;;;;6.25;2.78;;;18.60;61.90;;;;;;5021830;28;20065;-63
2022/07/05 01:37:31;;;;;;;6.63;3.08;;;18.60;62.10;;;;;;5022333;28;20025;-63
2022/07/05 01:39:58;;;;;;;5.05;2.63;;;18.50;62.20;;;;;;5024686;28;20029;-63
2022/07/05 01:42:24;;;;;;;6.15;2.70;;;18.50;62.30;;;;;;5019950;28;20049;-63
2022/07/05 01:44:49;;;;;;;5.72;2.47;;;18.50;62.50;;;;;;5036233;28;20418;-63
2022/07/05 01:47:16;;;;;;;4.82;2.50;;;18.50;62.60;;;;;;5021272;28;20355;-63
2022/07/05 01:49:45;;;;;;;5.65;2.47;;;18.50;62.80;;;;;;5024672;28;20504;-63
2022/07/05 01:52:12;;;;;;;6.25;2.50;;;18.40;62.90;;;;;;5015884;28;20037;-63
2022/07/05 01:54:40;;;;;;;5.30;2.33;;;18.40;63.00;;;;;;5028599;28;20037;-63
2022/07/05 01:57:07;;;;;;;6.22;2.42;;;18.40;63.10;;;;;;5016261;28;20026;-63
2022/07/05 01:59:34;;;;;;;5.95;2.53;;;18.40;63.20;;;;;;5017883;28;20458;-63
2022/07/05 02:02:00;;;;;;;5.80;2.80;;;18.40;63.30;;;;;;5023472;28;20034;-63
2022/07/05 02:04:27;;;;;;;4.45;2.20;;;18.40;63.40;;;;;;5028242;28;20044;-63
2022/07/05 02:06:53;;;;;;;7.28;2.80;;;18.40;63.40;;;;;;5017030;28;20602;-63
2022/07/05 02:09:19;;;;;;;6.57;2.60;;;18.40;63.40;;;;;;5002874;28;20034;-63
2022/07/05 02:11:45;;;;;;;6.95;2.67;;;18.40;63.40;;;;;;5025333;28;20359;-63
2022/07/05 02:14:11;;;;;;;5.80;2.72;;;18.30;63.40;;;;;;5030099;28;20032;-63
2022/07/05 02:16:39;;;;;;;6.47;2.92;;;18.30;63.50;;;;;;5027017;28;20119;-63
2022/07/05 02:19:05;;;;;;;5.15;2.50;;;18.30;63.60;;;;;;5016584;28;20482;-63
2022/07/05 02:21:36;;;;;;;5.07;2.53;;;18.30;63.60;;;;;;5024875;28;20513;-63
2022/07/05 02:24:05;;;;;;;6.28;2.70;;;18.20;63.60;;;;;;5016666;28;20025;-63
2022/07/05 02:26:35;;;;;;;6.65;2.67;;;18.20;63.70;;;;;;5014780;28;20212;-63
2022/07/05 02:29:03;;;;;;;4.70;2.33;;;18.20;63.70;;;;;;5013381;28;20034;-63
2022/07/05 02:31:29;;;;;;;6.18;3.10;;;18.20;63.80;;;;;;5007572;28;20022;-63
2022/07/05 02:33:56;;;;;;;5.60;2.72;;;18.20;63.80;;;;;;4995035;28;20030;-63
2022/07/05 02:36:24;;;;;;;7.40;3.08;;;18.20;63.90;;;;;;5004841;28;20387;-63
2022/07/05 02:38:49;;;;;;;7.38;2.63;;;18.20;64.00;;;;;;5013767;28;20076;-63
2022/07/05 02:41:15;;;;;;;6.93;2.88;;;18.10;63.90;;;;;;5015218;28;20391;-63
2022/07/05 02:43:45;;;;;;;5.00;2.53;;;18.20;64.00;;;;;;5016720;28;20028;-63
2022/07/05 02:46:11;;;;;;;6.65;2.42;;;18.10;64.00;;;;;;4994817;28;20420;-63
2022/07/05 02:48:38;;;;;;;5.50;2.58;;;18.10;64.10;;;;;;5029200;28;20117;-63
2022/07/05 02:51:07;;;;;;;6.75;2.78;;;18.10;64.10;;;;;;5015591;28;20407;-63
2022/07/05 02:53:34;;;;;;;7.28;2.75;;;18.10;64.10;;;;;;5013102;28;20455;-63
2022/07/05 02:56:01;;;;;;;5.80;2.70;;;18.10;64.20;;;;;;5015125;28;20026;-63
2022/07/05 02:58:26;;;;;;;6.05;3.00;;;18.10;64.20;;;;;;5012745;28;20413;-63
2022/07/05 03:00:53;;;;;;;6.07;2.65;;;18.10;64.20;;;;;;5009852;28;20448;-63
2022/07/05 03:03:21;;;;;;;5.40;2.50;;;18.10;64.10;;;;;;5013862;28;20033;-63
2022/07/05 03:05:47;;;;;;;6.82;2.72;;;18.10;64.10;;;;;;5015603;28;20040;-63
2022/07/05 03:08:13;;;;;;;6.90;2.85;;;18.10;64.10;;;;;;4995691;28;20017;-63
2022/07/05 03:10:40;;;;;;;6.30;3.00;;;18.10;64.10;;;;;;5015288;28;20037;-64
2022/07/05 03:13:06;;;;;;;5.93;2.38;;;18.20;64.30;;;;;;5029492;28;20080;-64
2022/07/05 03:15:32;;;;;;;5.70;2.53;;;18.10;64.30;;;;;;5029236;28;20116;-64
2022/07/05 03:17:58;;;;;;;6.00;2.60;;;18.10;64.40;;;;;;5016285;28;20033;-63
2022/07/05 03:20:26;;;;;;;5.75;2.78;;;18.10;64.50;;;;;;5000570;28;20096;-63
2022/07/05 03:22:52;;;;;;;6.30;2.65;;;18.10;64.50;;;;;;5013150;28;20202;-63
2022/07/05 03:25:21;;;;;;;5.82;2.60;;;18.20;64.60;;;;;;5021710;28;20022;-63
2022/07/05 03:27:48;;;;;;;6.60;3.00;;;18.20;64.60;;;;;;5006838;28;20117;-63
2022/07/05 03:30:15;;;;;;;5.97;2.53;;;18.20;64.70;;;;;;5014589;28;20057;-63
2022/07/05 03:32:41;;;;;;;6.00;2.75;;;18.20;64.60;;;;;;5024890;28;20113;-63
2022/07/05 03:35:07;;;;;;;6.38;2.80;;;18.20;64.70;;;;;;4992667;28;20108;-63
2022/07/05 03:37:33;;;;;;;6.00;3.05;;;18.20;64.70;;;;;;5011437;28;20037;-63
2022/07/05 03:39:59;;;;;;;4.88;2.47;;;18.20;64.80;;;;;;5019947;28;20017;-63
2022/07/05 03:42:25;;;;;;;7.10;3.30;;;18.20;64.90;;;;;;5019876;28;20109;-63
2022/07/05 03:44:51;;;;;;;7.20;3.40;;;18.20;65.00;;;;;;5019492;28;20067;-63
2022/07/05 03:47:19;;;;;;;6.47;3.38;;;18.20;65.10;;;;;;5016646;28;20026;-63
2022/07/05 03:49:45;;;;;;;8.23;3.72;;;18.30;65.30;;;;;;5014133;28;20033;-63
2022/07/05 03:52:10;;;;;;;6.88;3.53;;;18.30;65.30;;;;;;5011412;28;20436;-63
2022/07/05 03:54:36;;;;;;;7.30;3.67;;;18.30;65.30;;;;;;5012107;28;20033;-62
2022/07/05 03:57:04;;;;;;;7.90;3.85;;;18.30;65.40;;;;;;5012812;28;20038;-63
2022/07/05 03:59:30;;;;;;;7.30;3.45;;;18.30;65.50;;;;;;5013485;28;20025;-63
2022/07/05 04:01:56;;;;;;;6.55;3.47;;;18.30;65.50;;;;;;5014104;28;20025;-63
2022/07/05 04:04:22;;;;;;;5.60;2.95;;;18.40;65.60;;;;;;5011175;28;20117;-63
2022/07/05 04:06:47;;;;;;;6.00;3.42;;;18.40;65.60;;;;;;5016623;28;20026;-64
2022/07/05 04:09:14;;;;;;;6.00;3.17;;;18.40;65.60;;;;;;4994948;28;20156;-63
2022/07/05 04:11:40;;;;;;;6.68;3.05;;;18.40;65.70;;;;;;5041006;28;20478;-62
2022/07/05 04:14:05;;;;;;;8.02;3.60;;;18.40;65.60;;;;;;5013793;28;20033;-63
2022/07/05 04:16:31;;;;;;;7.07;4.15;;;18.40;65.50;;;;;;5010482;28;20064;-63
2022/07/05 04:18:59;;;;;;;6.28;3.72;;;18.50;65.60;;;;;;5013002;28;20022;-63
2022/07/05 04:21:27;;;;;;;7.07;3.58;;;18.50;65.60;;;;;;4997703;28;20033;-63
2022/07/05 04:23:53;;;;;;;6.80;3.58;;;18.50;65.60;;;;;;5028497;28;20030;-63
2022/07/05 04:26:20;;;;;;;6.22;3.63;;;18.50;65.70;;;;;;5008268;28;20018;-63
2022/07/05 04:28:46;;;;;;;7.10;3.55;;;18.50;65.70;;;;;;5028953;28;20026;-63
2022/07/05 04:31:18;;;;;;;7.00;3.47;;;18.50;65.70;;;;;;5014693;28;20056;-63
2022/07/05 04:33:46;;;;;;;7.72;3.63;;;18.50;65.80;;;;;;5012484;28;20362;-62
2022/07/05 04:36:16;;;;;;;6.25;3.13;;;18.50;65.70;;;;;;5029172;28;20495;-62
2022/07/05 04:38:42;;;;;;;7.10;3.20;;;18.50;65.60;;;;;;5012004;28;20083;-62
2022/07/05 04:41:07;;;;;;;6.60;3.38;;;18.60;65.50;;;;;;5012879;28;20037;-63
2022/07/05 04:43:35;;;;;;;7.10;3.03;;;18.60;65.30;;;;;;5011863;28;20045;-63
2022/07/05 04:46:04;;;;;;;7.03;3.40;;;18.60;65.20;;;;;;5013185;28;20033;-63
2022/07/05 04:48:30;;;;;;;6.03;3.25;;;18.60;65.20;;;;;;5027967;28;20201;-62
2022/07/05 04:50:56;;;;;;;6.88;3.40;;;18.60;65.30;;;;;;4997114;28;20109;-63
2022/07/05 04:53:23;;;;;;;6.75;3.67;;;18.70;65.30;;;;;;5026750;28;20063;-63
2022/07/05 04:55:48;;;;;;;7.20;3.08;;;18.70;65.20;;;;;;5014216;28;20058;-63
2022/07/05 04:58:14;;;;;;;8.35;4.43;;;18.70;65.00;;;;;;5010134;28;20026;-62
2022/07/05 05:00:39;;;;;;;8.63;4.55;;;18.70;65.00;;;;;;5012399;28;20156;-62
2022/07/05 05:03:05;;;;;;;9.07;4.35;;;18.70;65.00;;;;;;5012386;28;20408;-63
2022/07/05 05:05:31;;;;;;;8.50;5.07;;;18.80;65.00;;;;;;5013066;28;20065;-62
2022/07/05 05:07:56;;;;;;;9.07;5.60;;;18.80;65.10;;;;;;5024162;28;20052;-63
2022/07/05 05:10:22;;;;;;;11.30;6.22;;;18.80;65.20;;;;;;5017050;28;20394;-62
2022/07/05 05:12:48;;;;;;;10.77;6.30;;;18.80;65.40;;;;;;5020199;28;20526;-62
2022/07/05 05:15:13;;;;;;;13.07;6.75;;;18.80;66.10;;;;;;5017065;28;20045;-61
2022/07/05 05:17:42;;;;;;;9.88;5.72;;;18.90;65.50;;;;;;5030789;28;20060;-62
2022/07/05 05:20:13;;;;;;;8.82;5.57;;;18.90;65.30;;;;;;5020966;28;20463;-62
2022/07/05 05:22:39;;;;;;;10.90;6.30;;;19.00;65.30;;;;;;5028126;28;20026;-61
2022/07/05 05:25:05;;;;;;;9.40;6.10;;;19.10;65.20;;;;;;5016060;28;20041;-61
2022/07/05 05:27:30;;;;;;;11.23;5.72;;;19.10;65.10;;;;;;5035993;28;20029;-62
2022/07/05 05:29:56;;;;;;;10.57;6.65;;;19.10;65.80;;;;;;5032130;28;20119;-62
2022/07/05 05:32:22;;;;;;;10.73;6.07;;;19.20;65.10;;;;;;5017373;28;20035;-62
2022/07/05 05:34:47;;;;;;;9.48;6.10;;;19.20;65.00;;;;;;5015472;28;20033;-62
2022/07/05 05:37:13;;;;;;;9.48;5.82;;;19.30;65.10;;;;;;5016505;28;20045;-62
2022/07/05 05:39:38;;;;;;;12.95;6.63;;;19.30;65.10;;;;;;5017368;28;20132;-62
2022/07/05 05:42:05;;;;;;;10.40;6.55;;;19.30;65.10;;;;;;5005780;28;20048;-62
2022/07/05 05:44:30;;;;;;;9.52;5.85;;;19.30;65.00;;;;;;5017213;28;20099;-62
2022/07/05 05:46:56;;;;;;;9.93;6.18;;;19.40;64.80;;;;;;5014897;28;20037;-62
2022/07/05 05:49:21;;;;;;;11.85;6.03;;;19.40;64.80;;;;;;5017301;28;20061;-63
2022/07/05 05:51:47;;;;;;;10.73;6.55;;;19.50;64.80;;;;;;5013526;28;20108;-62
2022/07/05 05:54:13;;;;;;;9.90;6.90;;;19.50;64.60;;;;;;5015572;28;20358;-62
2022/07/05 05:56:38;;;;;;;9.38;5.72;;;19.60;64.60;;;;;;5014887;28;20030;-62
2022/07/05 05:59:04;;;;;;;10.18;6.18;;;19.70;64.50;;;;;;5032581;28;20026;-62
2022/07/05 06:01:30;;;;;;;11.85;6.55;;;19.80;64.50;;;;;;5013906;28;20022;-62
2022/07/05 06:03:55;;;;;;;10.50;6.07;;;19.90;64.50;;;;;;5016849;28;20040;-62
2022/07/05 06:06:21;;;;;;;13.38;6.70;;;19.90;64.30;;;;;;5018596;28;20092;-62
2022/07/05 06:08:46;;;;;;;11.15;6.45;;;19.90;64.20;;;;;;5030152;28;20038;-63
2022/07/05 06:11:13;;;;;;;9.93;6.35;;;20.00;64.20;;;;;;5013660;28;20038;-62
2022/07/05 06:13:39;;;;;;;9.98;6.13;;;20.00;64.10;;;;;;5029289;28;20073;-62
2022/07/05 06:16:06;;;;;;;9.43;6.38;;;20.10;64.00;;;;;;5016566;28;20049;-62
2022/07/05 06:18:32;;;;;;;8.82;6.22;;;20.10;63.80;;;;;;5017662;28;20030;-62
2022/07/05 06:20:58;;;;;;;10.52;5.93;;;20.10;63.70;;;;;;5019272;28;20025;-62
2022/07/05 06:23:23;;;;;;;11.38;6.10;;;20.20;63.50;;;;;;5029260;28;20378;-62
2022/07/05 06:25:49;;;;;;;8.77;5.82;;;20.20;63.40;;;;;;5018015;28;20040;-62
2022/07/05 06:28:15;;;;;;;9.07;5.60;;;20.30;63.30;;;;;;5001235;28;20030;-62
2022/07/05 06:30:41;;;;;;;8.55;5.38;;;20.40;62.90;;;;;;5020285;28;20030;-62
2022/07/05 06:33:07;;;;;;;8.35;5.38;;;20.50;62.40;;;;;;5014797;28;20033;-62
2022/07/05 06:35:33;;;;;;;9.50;5.70;;;20.50;62.10;;;;;;5015329;28;20087;-62
2022/07/05 06:38:09;;;;;;;8.55;5.32;;;20.60;62.00;;;;;;5020266;28;20386;-62
2022/07/05 06:40:36;;;;;;;9.88;5.93;;;20.60;61.70;;;;;;5021009;28;20040;-62
2022/07/05 06:43:04;;;;;;;8.85;5.13;;;20.60;61.60;;;;;;5015303;28;20030;-62
2022/07/05 06:45:38;;;;;;;10.50;5.95;;;20.70;61.50;;;;;;5014835;28;20383;-63
2022/07/05 06:48:06;;;;;;;9.60;6.00;;;20.80;61.20;;;;;;5019844;28;20033;-62
2022/07/05 06:50:37;;;;;;;9.38;6.15;;;20.90;60.90;;;;;;5023423;28;20592;-62
2022/07/05 06:53:04;;;;;;;10.48;6.47;;;21.00;60.60;;;;;;5019318;28;20048;-63
2022/07/05 06:55:30;;;;;;;9.77;5.97;;;21.10;60.70;;;;;;5026760;28;20026;-63
2022/07/05 06:58:01;;;;;;;9.45;5.43;;;21.20;60.60;;;;;;5018429;28;20120;-62
2022/07/05 07:00:27;;;;;;;9.75;6.03;;;21.20;60.50;;;;;;5004023;28;20050;-62
2022/07/05 07:02:53;;;;;;;10.95;6.32;;;21.30;60.30;;;;;;5021368;28;20406;-62
2022/07/05 07:05:19;;;;;;;10.35;5.30;;;21.60;59.90;;;;;;5018433;28;20120;-62
2022/07/05 07:10:29;;;;;;;10.10;5.10;;;22.00;59.10;;;;;;5016126;28;20041;-62
2022/07/05 07:12:56;;;;;;;11.05;5.20;;;22.10;58.70;;;;;;5025332;28;20517;-62
2022/07/05 07:15:22;;;;;;;7.72;4.82;;;22.30;58.30;;;;;;5034951;28;20067;-62
2022/07/05 07:17:48;;;;;;;8.00;5.22;;;22.30;58.00;;;;;;5035689;28;20049;-62
2022/07/05 07:20:13;;;;;;;9.05;5.07;;;22.30;58.00;;;;;;5030113;28;20084;-62
2022/07/05 07:22:39;;;;;;;8.48;5.00;;;22.50;57.90;;;;;;5028724;28;20060;-62
2022/07/05 07:25:06;;;;;;;8.90;5.22;;;22.70;57.40;;;;;;5021573;28;20030;-62
2022/07/05 07:27:32;;;;;;;9.07;4.70;;;22.90;56.90;;;;;;5024090;28;20025;-62
2022/07/05 07:29:58;;;;;;;10.32;5.03;;;23.00;56.50;;;;;;5026069;28;20120;-62
2022/07/05 07:32:23;;;;;;;8.45;4.50;;;23.20;56.10;;;;;;5028266;28;20083;-62
2022/07/05 07:34:49;;;;;;;10.43;4.40;;;23.30;55.80;;;;;;5026883;28;20378;-62
2022/07/05 07:37:14;;;;;;;9.73;5.55;;;23.50;55.40;;;;;;5028618;28;20021;-62
2022/07/05 07:39:40;;;;;;;10.02;4.93;;;23.70;55.00;;;;;;5028710;28;20029;-62
2022/07/05 07:42:09;;;;;;;8.35;4.38;;;23.80;54.70;;;;;;5023078;28;20097;-62
2022/07/05 07:44:34;;;;;;;8.90;4.50;;;23.90;54.40;;;;;;5014013;28;20022;-62
2022/07/05 07:47:00;;;;;;;8.65;4.30;;;24.00;54.00;;;;;;5022039;28;20140;-62
2022/07/05 07:49:26;;;;;;;7.88;4.53;;;23.90;53.70;;;;;;5029993;28;20026;-62
2022/07/05 07:51:51;;;;;;;7.90;4.22;;;23.70;53.80;;;;;;5023816;28;20572;-63
2022/07/05 07:54:17;;;;;;;9.55;4.82;;;23.50;54.10;;;;;;5020936;28;20034;-63
2022/07/05 07:56:43;;;;;;;8.73;4.50;;;23.30;54.20;;;;;;5015016;28;20033;-63
2022/07/05 07:59:10;;;;;;;9.98;5.45;;;23.00;54.60;;;;;;5016682;28;20100;-63
2022/07/05 08:01:36;;;;;;;8.60;4.53;;;22.90;54.80;;;;;;5014897;28;20455;-63
2022/07/05 08:04:01;;;;;;;6.93;3.90;;;22.80;55.00;;;;;;5010798;28;20046;-63
2022/07/05 08:06:27;;;;;;;7.10;3.85;;;22.80;55.10;;;;;;5023589;28;20108;-64
2022/07/05 08:08:52;;;;;;;9.20;4.30;;;22.70;55.20;;;;;;5028397;28;20053;-63
2022/07/05 08:11:18;;;;;;;8.73;4.03;;;22.70;55.10;;;;;;5019168;28;20414;-64
2022/07/05 08:13:44;;;;;;;8.75;4.63;;;22.80;55.00;;;;;;5014815;28;20030;-67
2022/07/05 08:16:10;;;;;;;7.28;3.67;;;22.90;54.90;;;;;;5020563;28;20068;-64
2022/07/05 08:21:39;;;;;;;7.18;3.92;;;22.80;54.60;;;;;;5014224;28;20448;-62
2022/07/05 08:24:07;;;;;;;8.10;3.55;;;22.70;54.50;;;;;;5011889;28;20358;-62
2022/07/05 08:26:34;;;;;;;6.82;3.30;;;22.80;54.80;;;;;;5013345;28;20069;-63
2022/07/05 08:29:01;;;;;;;8.00;4.00;;;22.70;54.70;;;;;;5010916;28;20030;-62
2022/07/05 08:31:32;;;;;;;9.00;4.18;;;22.70;54.80;;;;;;5012216;28;20029;-62
2022/07/05 08:34:00;;;;;;;9.25;4.10;;;22.70;54.60;;;;;;5009827;28;20084;-62
2022/07/05 08:36:25;;;;;;;7.15;3.58;;;22.60;54.70;;;;;;5014313;28;20371;-62
2022/07/05 08:38:51;;;;;;;6.75;3.60;;;22.70;54.60;;;;;;5007732;28;20026;-62
2022/07/05 08:41:19;;;;;;;5.90;3.40;;;22.70;54.70;;;;;;5027928;28;20018;-63
2022/07/05 08:43:47;;;;;;;8.38;3.33;;;22.80;54.70;;;;;;5009292;28;20026;-62
2022/07/05 08:46:15;;;;;;;6.38;2.42;;;22.80;54.80;;;;;;5011437;28;20042;-62
2022/07/05 08:48:43;;;;;;;6.32;2.80;;;22.80;54.70;;;;;;5013011;28;20076;-63
2022/07/05 08:51:23;;;;;;;7.30;3.47;;;22.80;54.50;;;;;;5012420;28;20386;-63
2022/07/05 08:53:50;;;;;;;8.20;3.93;;;22.80;54.60;;;;;;5013207;28;20034;-63
2022/07/05 08:56:17;;;;;;;8.10;3.60;;;22.80;54.70;;;;;;5011155;28;20040;-63
2022/07/05 08:58:43;;;;;;;7.40;3.70;;;22.90;55.30;;;;;;5012921;28;20056;-62
2022/07/05 09:01:10;;;;;;;8.00;3.50;;;23.10;54.40;;;;;;5014363;28;20418;-61
2022/07/05 09:03:52;;;;;;;7.00;3.75;;;23.30;54.00;;;;;;5016606;28;20041;-61
2022/07/05 09:06:18;;;;;;;;;;;23.40;53.50;;;;;;5017790;28;20030;-61
2022/07/05 09:08:45;;;;;;;7.43;3.08;;;23.40;53.60;;;;;;5017427;28;19909;-62
2022/07/05 09:11:15;;;;;;;5.97;3.17;;;23.40;53.20;;;;;;5015232;28;20068;-62
2022/07/05 09:13:48;;;;;;;5.63;2.67;;;23.60;52.10;;;;;;5017219;28;20060;-62
2022/07/05 09:16:15;;;;;;;5.93;2.33;;;24.00;51.40;;;;;;5016171;28;20092;-62
2022/07/05 09:18:46;;;;;;;6.38;2.65;;;24.40;50.50;;;;;;5017345;28;20156;-62
2022/07/05 09:21:11;;;;;;;;;;;24.70;50.00;;;;;;5017093;28;20030;-62
2022/07/05 09:23:37;;;;;;;6.13;2.13;;;24.70;50.10;;;;;;5016232;28;19932;-65
2022/07/05 09:26:03;;;;;;;4.65;2.13;;;24.70;49.80;;;;;;5031450;28;20172;-62
2022/07/05 09:28:28;;;;;;;5.50;2.10;;;24.50;49.40;;;;;;5013162;28;20440;-62
2022/07/05 09:30:54;;;;;;;5.25;2.03;;;24.40;49.30;;;;;;5019533;28;20025;-62
2022/07/05 09:33:20;;;;;;;5.13;2.17;;;24.20;49.30;;;;;;5015974;28;20049;-62
2022/07/05 09:35:59;;;;;;;5.32;2.20;;;24.00;49.50;;;;;;5005417;28;20038;-62
2022/07/05 09:38:25;;;;;;;5.72;2.35;;;23.90;49.60;;;;;;5019808;28;20022;-62
2022/07/05 09:40:56;;;;;;;5.57;2.30;;;23.80;49.70;;;;;;5008504;28;20026;-62
2022/07/05 09:43:23;;;;;;;;;;;23.70;49.80;;;;;;5004493;28;20030;-62
2022/07/05 09:46:03;;;;;;;4.68;1.52;;;23.50;50.20;;;;;;4993112;28;20247;-63
2022/07/05 09:48:30;;;;;;;2.97;1.40;;;23.30;50.00;;;;;;5013921;28;20021;-61
2022/07/05 09:51:06;;;;;;;5.63;2.00;;;23.10;50.10;;;;;;5024340;28;20061;-61
2022/07/05 09:53:55;;;;;;;5.47;2.50;;;23.00;50.20;;;;;;5009962;28;20056;-61
2022/07/05 09:56:22;;;;;;;6.85;2.55;;;22.80;50.80;;;;;;5012921;28;20022;-61
2022/07/05 09:58:47;;;;;;;8.25;2.72;;;22.60;51.10;;;;;;4988139;28;20030;-61
2022/07/05 10:01:24;;;;;;;8.13;3.35;;;22.50;51.50;;;;;;5005827;28;20368;-61
2022/07/05 10:03:57;;;;;;;8.95;3.63;;;22.40;52.10;;;;;;5009443;28;20025;-61
2022/07/05 10:06:24;;;;;;;8.95;5.15;;;22.40;52.40;;;;;;5016091;28;20026;-61
2022/07/05 10:08:52;;;;;;;10.10;4.32;;;22.40;52.70;;;;;;5015074;28;20439;-62
2022/07/05 10:11:22;;;;;;;11.75;5.65;;;22.60;52.90;;;;;;5010721;28;20125;-61
2022/07/05 10:13:50;;;;;;;9.23;5.20;;;23.00;52.70;;;;;;5013333;28;20042;-61
2022/07/05 10:16:17;;;;;;;8.88;4.72;;;23.30;52.30;;;;;;5014016;28;20148;-62
2022/07/05 10:18:46;;;;;;;7.43;4.38;;;23.60;52.20;;;;;;5007722;28;20093;-61
2022/07/05 10:21:14;;;;;;;6.70;3.58;;;23.60;52.10;;;;;;5004019;28;20053;-62
2022/07/05 10:23:45;;;;;;;8.82;3.70;;;23.60;51.90;;;;;;5016582;28;20026;-61
2022/07/05 10:26:12;;;;;;;;;;;23.80;51.60;;;;;;5014480;28;20344;-62
2022/07/05 10:28:44;;;;;;;6.30;3.25;;;23.90;51.40;;;;;;5031999;28;20003;-62
2022/07/05 10:31:12;;;;;;;7.72;3.83;;;24.00;51.00;;;;;;5012908;28;20034;-62
2022/07/05 10:33:38;;;;;;;6.85;3.72;;;24.40;50.50;;;;;;5013992;28;20179;-62
2022/07/05 10:36:10;;;;;;;7.30;3.35;;;24.60;49.90;;;;;;5014730;28;20379;-62
2022/07/05 10:38:38;;;;;;;5.65;2.78;;;24.90;49.50;;;;;;5005761;28;20026;-62
2022/07/05 10:41:07;;;;;;;6.50;3.13;;;24.90;49.30;;;;;;5025967;28;20084;-62
2022/07/05 10:43:34;;;;;;;6.63;3.22;;;24.90;49.20;;;;;;5014126;28;20026;-62
2022/07/05 10:46:02;;;;;;;6.15;2.90;;;25.00;49.00;;;;;;5014289;28;20452;-71
2022/07/05 10:48:28;;;;;;;7.28;2.42;;;25.10;48.50;;;;;;4996175;28;20470;-63
2022/07/05 10:50:55;;;;;;;4.53;2.13;;;25.30;48.10;;;;;;5010797;28;20040;-63
2022/07/05 10:53:43;;;;;;;5.60;2.35;;;25.50;47.70;;;;;;4991626;28;20538;-63
2022/07/05 10:56:09;;;;;;;8.70;2.55;;;25.80;47.30;;;;;;5005928;28;20041;-61
2022/07/05 10:58:48;;;;;;;5.93;2.53;;;26.10;47.10;;;;;;5013090;28;20021;-63
2022/07/05 11:01:20;;;;;;;6.47;2.40;;;26.40;46.70;;;;;;5015273;28;20034;-64
2022/07/05 11:04:06;;;;;;;6.57;2.63;;;26.60;46.60;;;;;;5014052;28;20045;-63
2022/07/05 11:06:39;;;;;;;7.03;2.47;;;26.80;46.10;;;;;;5016557;28;20344;-64
2022/07/05 11:09:10;;;;;;;6.15;2.70;;;26.90;45.60;;;;;;5009204;28;20041;-64
2022/07/05 11:11:41;;;;;;;4.68;2.00;;;26.80;45.40;;;;;;5022916;28;20034;-63
2022/07/05 11:14:19;;;;;;;6.30;2.28;;;26.80;45.30;;;;;;5008371;28;20061;-64
2022/07/05 11:16:45;;;;;;;6.22;2.50;;;26.80;45.30;;;;;;5020571;28;20044;-63
2022/07/05 11:19:12;;;;;;;4.63;2.22;;;26.70;45.20;;;;;;5020371;28;20022;-63
2022/07/05 11:21:58;;;;;;;7.22;2.70;;;26.60;45.30;;;;;;5021761;28;20026;-63
2022/07/05 11:24:27;;;;;;;5.68;2.40;;;26.50;45.30;;;;;;5013904;28;20084;-64
2022/07/05 11:26:57;;;;;;;4.82;2.25;;;26.30;45.60;;;;;;5014046;28;20477;-63
2022/07/05 11:29:42;;;;;;;4.53;2.20;;;26.40;45.80;;;;;;5001846;28;20032;-63
2022/07/05 11:32:09;;;;;;;4.75;2.00;;;26.50;45.60;;;;;;5013632;28;20033;-64
2022/07/05 11:34:36;;;;;;;5.13;2.28;;;26.70;45.40;;;;;;5014785;28;20431;-64
2022/07/05 11:37:14;;;;;;;4.57;2.17;;;26.90;45.30;;;;;;5013602;28;20057;-64
2022/07/05 11:39:40;;;;;;;6.05;2.40;;;26.80;45.20;;;;;;5014712;28;20041;-63
2022/07/05 11:42:08;;;;;;;5.97;2.42;;;26.70;45.20;;;;;;5025167;28;20120;-64
2022/07/05 11:44:36;;;;;;;4.80;1.80;;;26.60;45.00;;;;;;5014867;28;20414;-63
2022/07/05 11:47:02;;;;;;;4.35;1.80;;;26.70;44.50;;;;;;5014100;28;20451;-63
2022/07/05 11:49:27;;;;;;;6.82;1.90;;;26.70;44.20;;;;;;5007280;28;20057;-63
2022/07/05 11:51:57;;;;;;;4.22;1.80;;;26.70;43.80;;;;;;5014442;28;20030;-64
2022/07/05 11:54:31;;;;;;;4.10;1.50;;;26.60;44.10;;;;;;5014140;28;20406;-64
2022/07/05 11:56:58;;;;;;;5.00;1.55;;;26.60;44.00;;;;;;5014260;28;20026;-63
2022/07/05 11:59:25;;;;;;;3.22;1.35;;;26.40;44.20;;;;;;5014842;28;20026;-64
2022/07/05 12:01:52;;;;;;;5.25;1.60;;;26.20;44.00;;;;;;5014244;28;20041;-63
2022/07/05 12:04:26;;;;;;;3.65;1.23;;;26.10;44.00;;;;;;5012762;28;20503;-63
2022/07/05 12:06:51;;;;;;;2.33;1.23;;;26.10;44.00;;;;;;5020193;28;20026;-63
2022/07/05 12:09:23;;;;;;;5.15;1.50;;;26.10;43.80;;;;;;5014908;28;20115;-64
2022/07/05 12:14:35;;;;;;;4.38;1.25;;;25.90;43.50;;;;;;5014826;28;20494;-63
2022/07/05 12:17:15;;;;;;;3.15;1.50;;;25.60;43.30;;;;;;5027315;28;20030;-64
2022/07/05 12:19:40;;;;;;;2.63;1.17;;;25.40;43.50;;;;;;5014791;28;20057;-63
2022/07/05 12:22:06;;;;;;;2.60;1.10;;;25.30;43.60;;;;;;5014559;28;20064;-62
2022/07/05 12:24:32;;;;;;;2.65;1.20;;;25.30;43.50;;;;;;5012924;28;20109;-63
2022/07/05 12:26:57;;;;;;;3.25;1.35;;;25.20;43.60;;;;;;5014508;28;20033;-63
2022/07/05 12:29:23;;;;;;;3.75;1.60;;;25.10;43.70;;;;;;5013298;28;20044;-63
2022/07/05 12:32:03;;;;;;;3.45;1.33;;;25.00;43.80;;;;;;5013832;28;20096;-63
2022/07/05 12:34:30;;;;;;;2.25;1.20;;;24.90;44.10;;;;;;5033405;28;20033;-63
2022/07/05 12:36:57;;;;;;;2.53;1.20;;;25.00;44.10;;;;;;5018659;28;20029;-63
2022/07/05 12:39:23;;;;;;;3.35;1.17;;;25.00;44.10;;;;;;5016517;28;20041;-63
2022/07/05 12:41:49;;;;;;;2.53;1.23;;;25.10;44.20;;;;;;5018540;28;20026;-63
2022/07/05 12:44:19;;;;;;;2.95;1.30;;;25.10;44.20;;;;;;5018383;28;20070;-63
2022/07/05 12:46:46;;;;;;;3.28;1.30;;;25.10;44.20;;;;;;5018676;28;20030;-63
2022/07/05 12:49:12;;;;;;;5.07;1.40;;;25.10;44.20;;;;;;5017718;28;20029;-63
2022/07/05 12:51:39;;;;;;;3.15;1.33;;;25.10;44.10;;;;;;5016573;28;20044;-63
2022/07/05 13:00:01;;;;;;;3.17;1.33;;;25.10;44.20;;;;;;5018164;28;20059;-63
2022/07/05 13:02:46;;;;;;;2.75;1.00;;;24.90;44.20;;;;;;5017047;28;20027;-62
2022/07/05 13:05:23;;;;;;;3.42;1.25;;;24.80;45.30;;;;;;5017598;28;20076;-63
2022/07/05 13:07:51;;;;;;;4.53;1.27;;;24.70;44.80;;;;;;5016652;28;20034;-62